createdAt,value
2023-02-08T00:02:09.596Z,103158.94
2023-02-08T00:07:11.695Z,103155.44
2023-02-08T00:12:13.553Z,103148.38
2023-02-08T00:17:15.335Z,103149.25
2023-02-08T00:22:17.338Z,103151.00
2023-02-08T00:27:19.496Z,103150.13
2023-02-08T00:32:21.693Z,103141.31
2023-02-08T00:37:23.573Z,103141.31
2023-02-08T00:42:27.085Z,103137.75
2023-02-08T00:47:29.244Z,103137.75
2023-02-08T00:52:31.670Z,103128.94
2023-02-08T00:57:34.608Z,103132.47
2023-02-08T01:02:38.493Z,103132.44
2023-02-08T01:07:40.798Z,103135.97
2023-02-08T01:12:42.818Z,103127.16
2023-02-08T01:17:45.124Z,103130.69
2023-02-08T01:22:47.468Z,103129.81
2023-02-08T01:27:49.539Z,103134.22
2023-02-08T01:32:51.683Z,103134.22
2023-02-08T01:37:53.458Z,103133.34
2023-02-08T01:42:55.628Z,103125.41
2023-02-08T01:48:05.142Z,103134.22
2023-02-08T01:53:07.104Z,103131.56
2023-02-08T01:58:12.402Z,103125.41
2023-02-08T02:03:15.042Z,103123.63
2023-02-08T02:08:16.973Z,103123.63
2023-02-08T02:13:21.817Z,103117.44
2023-02-08T02:18:32.176Z,103128.94
2023-02-08T02:23:52.456Z,103129.81
2023-02-08T02:29:56.453Z,103139.50
2023-02-08T02:35:01.161Z,103136.88
2023-02-08T02:40:27.632Z,103121.88
2023-02-08T02:45:40.564Z,103125.38
2023-02-08T02:50:48.501Z,103118.34
2023-02-08T02:55:57.268Z,103112.16
2023-02-08T03:00:59.999Z,103105.97
2023-02-08T03:06:10.733Z,103113.06
2023-02-08T03:11:26.860Z,103116.59
2023-02-08T03:16:37.813Z,103119.22
2023-02-08T03:22:05.883Z,103120.09
2023-02-08T03:27:23.138Z,103113.03
2023-02-08T03:32:51.172Z,103117.47
2023-02-08T03:38:01.295Z,103110.38
2023-02-08T03:43:10.633Z,103121.00
2023-02-08T03:48:16.208Z,103113.03
2023-02-08T03:53:21.950Z,103116.59
2023-02-08T03:58:30.550Z,103128.06
2023-02-08T04:03:34.304Z,103116.59
2023-02-08T04:08:36.546Z,103121.84
2023-02-08T04:13:38.665Z,103113.94
2023-02-08T04:18:40.622Z,103122.75
2023-02-08T04:23:42.549Z,103119.22
2023-02-08T04:28:44.576Z,103123.63
2023-02-08T04:33:46.373Z,103129.81
2023-02-08T04:38:48.540Z,103120.13
2023-02-08T04:43:50.565Z,103132.44
2023-02-08T04:48:52.536Z,103121.84
2023-02-08T04:53:54.351Z,103121.84
2023-02-08T04:58:56.199Z,103114.81
2023-02-08T05:03:58.160Z,103120.13
2023-02-08T05:08:59.988Z,103122.75
2023-02-08T05:14:02.200Z,103118.31
2023-02-08T05:19:04.082Z,103116.56
2023-02-08T05:24:07.378Z,103110.41
2023-02-08T05:29:09.487Z,103113.94
2023-02-08T05:34:12.482Z,103110.41
2023-02-08T05:39:14.427Z,103110.41
2023-02-08T05:44:16.226Z,103120.97
2023-02-08T05:49:18.033Z,103110.41
2023-02-08T05:54:19.955Z,103119.22
2023-02-08T05:59:21.871Z,103117.47
2023-02-08T06:04:23.985Z,103118.31
2023-02-08T06:09:25.862Z,103117.44
2023-02-08T06:14:27.771Z,103115.69
2023-02-08T06:19:29.602Z,103124.50
2023-02-08T06:24:31.500Z,103123.63
2023-02-08T06:29:33.413Z,103131.56
2023-02-08T06:34:35.504Z,103125.41
2023-02-08T06:39:37.529Z,103123.63
2023-02-08T06:44:51.371Z,103126.25
2023-02-08T06:49:56.379Z,103126.28
2023-02-08T06:54:58.498Z,103127.16
2023-02-08T07:00:00.550Z,103126.28
2023-02-08T07:05:02.726Z,103123.63
2023-02-08T07:10:05.239Z,103112.16
2023-02-08T07:15:07.553Z,103110.41
2023-02-08T07:20:11.852Z,103111.31
2023-02-08T07:25:13.881Z,103108.63
2023-02-08T07:30:15.750Z,103103.34
2023-02-08T07:35:17.670Z,103107.78
2023-02-08T07:40:19.590Z,103092.75
2023-02-08T07:45:21.608Z,103100.69
2023-02-08T07:50:23.527Z,103093.66
2023-02-08T07:55:25.579Z,103097.19
2023-02-08T08:00:27.651Z,103098.91
2023-02-08T08:05:29.735Z,103100.69
2023-02-08T08:10:31.727Z,103100.69
2023-02-08T08:15:33.589Z,103100.69
2023-02-08T08:20:35.561Z,103097.16
2023-02-08T08:25:38.019Z,103099.81
2023-02-08T08:30:43.992Z,103099.81
2023-02-08T08:35:47.547Z,103102.47
2023-02-08T08:40:49.831Z,103095.41
2023-02-08T08:45:53.054Z,103085.69
2023-02-08T08:50:55.605Z,103083.06
2023-02-08T08:55:57.671Z,103070.69
2023-02-08T09:01:00.580Z,103074.25
2023-02-08T09:06:02.692Z,103077.78
2023-02-08T09:11:08.770Z,103076.00
2023-02-08T09:16:18.065Z,103070.69
2023-02-08T09:21:22.513Z,103071.56
2023-02-08T09:26:26.739Z,103068.94
2023-02-08T09:31:31.402Z,103068.06
2023-02-08T09:36:39.356Z,103076.84
2023-02-08T09:41:43.120Z,103084.81
2023-02-08T09:47:29.156Z,103082.16
2023-02-08T09:52:50.369Z,103078.66
2023-02-08T09:57:55.840Z,103076.88
2023-02-08T10:03:00.484Z,103075.09
2023-02-08T10:08:03.922Z,103078.66
2023-02-08T10:13:40.408Z,103081.28
2023-02-08T10:18:52.236Z,103087.44
2023-02-08T10:24:00.231Z,103086.56
2023-02-08T10:29:05.038Z,103086.59
2023-02-08T10:34:31.881Z,103091.84
2023-02-08T10:39:35.851Z,103086.56
2023-02-08T10:44:50.067Z,103079.53
2023-02-08T10:49:59.233Z,103086.56
2023-02-08T10:55:01.593Z,103079.50
2023-02-08T11:00:27.355Z,103071.56
2023-02-08T11:05:36.583Z,103062.78
2023-02-08T11:10:40.584Z,103063.63
2023-02-08T11:15:49.942Z,103068.03
2023-02-08T11:20:55.439Z,103053.06
2023-02-08T11:26:16.322Z,103050.41
2023-02-08T11:31:21.186Z,103057.47
2023-02-08T11:36:23.266Z,103052.19
2023-02-08T11:41:25.398Z,103043.34
2023-02-08T11:46:29.761Z,103032.78
2023-02-08T11:51:34.962Z,103029.22
2023-02-08T11:56:37.024Z,103019.53
2023-02-08T12:01:41.456Z,103013.34
2023-02-08T12:07:18.519Z,102995.72
2023-02-08T12:12:36.884Z,102990.41
2023-02-08T12:17:50.761Z,102976.31
2023-02-08T12:23:04.339Z,102985.13
2023-02-08T12:28:43.680Z,102987.78
2023-02-08T12:33:50.984Z,102971.00
2023-02-08T12:39:23.999Z,102973.66
2023-02-08T12:45:16.041Z,102969.22
2023-02-08T12:50:31.804Z,102956.91
2023-02-08T12:55:41.941Z,102947.19
2023-02-08T13:00:47.014Z,102945.41
2023-02-08T13:06:01.625Z,102935.69
2023-02-08T13:11:19.854Z,102928.66
2023-02-08T13:16:26.640Z,102925.13
2023-02-08T13:21:38.425Z,102909.25
2023-02-08T13:26:41.137Z,102904.84
2023-02-08T13:31:46.725Z,102886.31
2023-02-08T13:36:59.931Z,102881.03
2023-02-08T13:42:04.851Z,102882.75
2023-02-08T13:47:08.081Z,102868.69
2023-02-08T13:52:12.181Z,102873.06
2023-02-08T13:57:53.504Z,102858.09
2023-02-08T14:03:19.813Z,102860.75
2023-02-08T14:08:29.975Z,102854.56
2023-02-08T14:13:38.017Z,102843.09
2023-02-08T14:18:40.569Z,102843.09
2023-02-08T14:23:42.657Z,102833.41
2023-02-08T14:28:47.010Z,102829.88
2023-02-08T14:33:56.773Z,102824.59
2023-02-08T14:39:24.742Z,102811.34
2023-02-08T14:44:39.311Z,102818.34
2023-02-08T14:49:46.009Z,102811.34
2023-02-08T14:54:59.706Z,102811.28
2023-02-08T15:00:09.068Z,102808.63
2023-02-08T15:05:22.639Z,102812.16
2023-02-08T15:10:26.677Z,102804.19
2023-02-08T15:15:41.914Z,102805.13
2023-02-08T15:20:44.991Z,102812.13
2023-02-08T15:26:21.114Z,102800.69
2023-02-08T15:31:33.622Z,102790.97
2023-02-08T15:36:38.736Z,102791.00
2023-02-08T15:41:40.734Z,102783.03
2023-02-08T15:46:44.191Z,102787.50
2023-02-08T15:51:46.966Z,102778.63
2023-02-08T15:57:00.185Z,102768.09
2023-02-08T16:02:19.200Z,102766.31
2023-02-08T16:07:48.749Z,102761.03
2023-02-08T16:12:53.771Z,102755.72
2023-02-08T16:17:55.594Z,102739.00
2023-02-08T16:23:01.221Z,102739.88
2023-02-08T16:28:06.573Z,102732.81
2023-02-08T16:33:09.169Z,102725.72
2023-02-08T16:38:18.368Z,102724.00
2023-02-08T16:43:26.321Z,102724.88
2023-02-08T16:48:35.178Z,102718.63
2023-02-08T16:53:42.389Z,102711.59
2023-02-08T16:58:45.023Z,102712.53
2023-02-08T17:03:46.929Z,102714.34
2023-02-08T17:08:49.472Z,102708.09
2023-02-08T17:13:52.787Z,102694.03
2023-02-08T17:18:54.728Z,102684.31
2023-02-08T17:23:56.819Z,102689.56
2023-02-08T17:28:59.391Z,102693.13
2023-02-08T17:34:04.814Z,102682.63
2023-02-08T17:39:06.652Z,102673.00
2023-02-08T17:44:08.688Z,102674.78
2023-02-08T17:49:10.666Z,102668.56
2023-02-08T17:54:12.641Z,102664.25
2023-02-08T17:59:14.785Z,102658.00
2023-02-08T18:04:16.608Z,102664.16
2023-02-08T18:09:18.552Z,102654.41
2023-02-08T18:14:20.817Z,102648.25
2023-02-08T18:19:22.983Z,102649.13
2023-02-08T18:24:24.871Z,102642.84
2023-02-08T18:29:27.015Z,102656.06
2023-02-08T18:34:28.950Z,102648.03
2023-02-08T18:39:31.222Z,102634.84
2023-02-08T18:44:35.633Z,102638.38
2023-02-08T18:49:41.034Z,102632.97
2023-02-08T18:54:42.965Z,102633.13
2023-02-08T18:59:44.753Z,102631.34
2023-02-08T19:04:47.020Z,102629.47
2023-02-08T19:09:49.731Z,102632.16
2023-02-08T19:14:51.668Z,102625.19
2023-02-08T19:19:53.848Z,102628.69
2023-02-08T19:24:55.813Z,102623.47
2023-02-08T19:29:57.657Z,102618.09
2023-02-08T19:34:59.550Z,102618.09
2023-02-08T19:40:01.471Z,102621.66
2023-02-08T19:45:03.733Z,102620.84
2023-02-08T19:50:05.909Z,102626.00
2023-02-08T19:55:07.980Z,102636.16
2023-02-08T20:00:22.532Z,102643.28
2023-02-08T20:05:25.578Z,102642.41
2023-02-08T20:10:27.454Z,102643.31
2023-02-08T20:15:29.379Z,102639.84
2023-02-08T20:20:31.705Z,102640.78
2023-02-08T20:25:34.121Z,102640.78
2023-02-08T20:30:36.043Z,102646.91
2023-02-08T20:35:38.072Z,102659.16
2023-02-08T20:40:40.055Z,102649.38
2023-02-08T20:45:42.576Z,102643.19
2023-02-08T20:50:44.973Z,102639.56
2023-02-08T20:55:47.256Z,102639.50
2023-02-08T21:00:49.330Z,102633.47
2023-02-08T21:05:51.431Z,102640.44
2023-02-08T21:10:53.282Z,102639.59
2023-02-08T21:15:55.438Z,102648.41
2023-02-08T21:20:58.422Z,102643.94
2023-02-08T21:26:01.180Z,102644.88
2023-02-08T21:31:06.642Z,102639.56
2023-02-08T21:36:12.385Z,102634.28
2023-02-08T21:41:23.140Z,102640.53
2023-02-08T21:46:26.039Z,102635.13
2023-02-08T21:51:46.630Z,102630.75
2023-02-08T21:56:48.717Z,102627.16
2023-02-08T22:01:50.784Z,102624.66
2023-02-08T22:06:52.844Z,102628.97
2023-02-08T22:11:56.734Z,102620.16
2023-02-08T22:16:58.782Z,102626.28
2023-02-08T22:22:00.592Z,102620.16
2023-02-08T22:27:02.966Z,102618.44
2023-02-08T22:32:06.026Z,102618.38
2023-02-08T22:37:07.907Z,102613.97
2023-02-08T22:42:13.730Z,102622.75
2023-02-08T22:47:15.775Z,102615.59
2023-02-08T22:52:18.229Z,102611.13
2023-02-08T22:57:20.368Z,102613.72
2023-02-08T23:02:23.727Z,102604.88
2023-02-08T23:07:25.970Z,102600.56
2023-02-08T23:12:28.095Z,102591.69
2023-02-08T23:17:30.092Z,102587.31
2023-02-08T23:22:32.151Z,102590.78
2023-02-08T23:27:34.407Z,102606.72
2023-02-08T23:32:36.630Z,102606.72
2023-02-08T23:37:38.909Z,102598.81
2023-02-08T23:42:40.946Z,102605.84
2023-02-08T23:47:42.952Z,102607.56
2023-02-08T23:52:44.929Z,102604.88
2023-02-08T23:57:46.895Z,102600.50
